sensor_id;sensor_type;location;lat;lon;timestamp;temperature;humidity
3684;DHT22;1858;48.716;9.648;2023-04-25T00:01:25;10.40;1.00
3684;DHT22;1858;48.716;9.648;2023-04-25T00:03:54;10.40;1.00
3684;DHT22;1858;48.716;9.648;2023-04-25T00:06:22;10.50;1.00
3684;DHT22;1858;48.716;9.648;2023-04-25T00:08:52;10.60;1.00
3684;DHT22;1858;48.716;9.648;2023-04-25T00:11:23;10.70;1.00
3684;DHT22;1858;48.716;9.648;2023-04-25T00:13:51;10.60;1.00
3684;DHT22;1858;48.716;9.648;2023-04-25T00:16:20;10.60;1.00
3684;DHT22;1858;48.716;9.648;2023-04-25T00:18:48;10.50;1.00
3684;DHT22;1858;48.716;9.648;2023-04-25T00:21:19;10.60;1.00
3684;DHT22;1858;48.716;9.648;2023-04-25T00:23:48;10.70;1.00
3684;DHT22;1858;48.716;9.648;2023-04-25T00:26:16;10.60;1.00
3684;DHT22;1858;48.716;9.648;2023-04-25T00:28:45;10.60;1.00
3684;DHT22;1858;48.716;9.648;2023-04-25T00:31:13;10.50;1.00
3684;DHT22;1858;48.716;9.648;2023-04-25T00:33:42;10.40;1.00
3684;DHT22;1858;48.716;9.648;2023-04-25T00:36:10;10.40;1.00
3684;DHT22;1858;48.716;9.648;2023-04-25T00:38:39;10.40;1.00
3684;DHT22;1858;48.716;9.648;2023-04-25T00:41:07;10.50;1.00
3684;DHT22;1858;48.716;9.648;2023-04-25T00:43:37;10.40;1.00
3684;DHT22;1858;48.716;9.648;2023-04-25T00:46:05;10.40;1.00
3684;DHT22;1858;48.716;9.648;2023-04-25T00:48:34;10.30;1.00
3684;DHT22;1858;48.716;9.648;2023-04-25T00:51:02;10.30;1.00
3684;DHT22;1858;48.716;9.648;2023-04-25T00:53:31;10.30;1.00
3684;DHT22;1858;48.716;9.648;2023-04-25T00:56:01;10.20;1.00
3684;DHT22;1858;48.716;9.648;2023-04-25T00:58:29;10.20;1.00
3684;DHT22;1858;48.716;9.648;2023-04-25T01:00:58;10.10;1.00
3684;DHT22;1858;48.716;9.648;2023-04-25T01:03:27;10.10;1.00
3684;DHT22;1858;48.716;9.648;2023-04-25T01:05:56;10.10;1.00
3684;DHT22;1858;48.716;9.648;2023-04-25T01:08:25;10.10;1.00
3684;DHT22;1858;48.716;9.648;2023-04-25T01:10:57;10.10;1.00
3684;DHT22;1858;48.716;9.648;2023-04-25T01:13:30;10.10;1.00
3684;DHT22;1858;48.716;9.648;2023-04-25T01:15:55;10.10;1.00
3684;DHT22;1858;48.716;9.648;2023-04-25T01:18:24;10.00;1.00
3684;DHT22;1858;48.716;9.648;2023-04-25T01:20:52;10.00;1.00
3684;DHT22;1858;48.716;9.648;2023-04-25T01:23:21;10.00;1.00
3684;DHT22;1858;48.716;9.648;2023-04-25T01:26:00;10.00;1.00
3684;DHT22;1858;48.716;9.648;2023-04-25T01:28:24;10.10;1.00
3684;DHT22;1858;48.716;9.648;2023-04-25T01:30:53;10.00;1.00
3684;DHT22;1858;48.716;9.648;2023-04-25T01:33:23;10.00;1.00
3684;DHT22;1858;48.716;9.648;2023-04-25T01:35:52;10.00;1.00
3684;DHT22;1858;48.716;9.648;2023-04-25T01:38:27;10.00;1.00
3684;DHT22;1858;48.716;9.648;2023-04-25T01:40:56;10.00;1.00
3684;DHT22;1858;48.716;9.648;2023-04-25T01:43:25;9.90;1.00
3684;DHT22;1858;48.716;9.648;2023-04-25T01:45:53;10.00;1.60
3684;DHT22;1858;48.716;9.648;2023-04-25T01:48:22;10.00;2.80
3684;DHT22;1858;48.716;9.648;2023-04-25T01:50:50;10.00;10.30
3684;DHT22;1858;48.716;9.648;2023-04-25T01:53:19;9.90;1.00
3684;DHT22;1858;48.716;9.648;2023-04-25T01:55:47;9.90;4.00
3684;DHT22;1858;48.716;9.648;2023-04-25T01:58:15;10.00;31.60
3684;DHT22;1858;48.716;9.648;2023-04-25T02:00:44;9.90;38.60
3684;DHT22;1858;48.716;9.648;2023-04-25T02:03:12;9.90;56.70
3684;DHT22;1858;48.716;9.648;2023-04-25T02:05:41;10.00;79.00
3684;DHT22;1858;48.716;9.648;2023-04-25T02:08:09;10.00;77.40
3684;DHT22;1858;48.716;9.648;2023-04-25T02:10:38;10.00;95.60
3684;DHT22;1858;48.716;9.648;2023-04-25T02:13:06;10.00;99.90
3684;DHT22;1858;48.716;9.648;2023-04-25T02:15:35;10.00;99.90
3684;DHT22;1858;48.716;9.648;2023-04-25T02:18:03;10.00;91.20
3684;DHT22;1858;48.716;9.648;2023-04-25T02:20:37;10.00;91.80
3684;DHT22;1858;48.716;9.648;2023-04-25T02:23:05;10.00;76.10
3684;DHT22;1858;48.716;9.648;2023-04-25T02:25:34;10.00;79.70
3684;DHT22;1858;48.716;9.648;2023-04-25T02:28:02;9.90;95.60
3684;DHT22;1858;48.716;9.648;2023-04-25T02:30:36;10.00;92.90
3684;DHT22;1858;48.716;9.648;2023-04-25T02:33:02;10.00;91.20
3684;DHT22;1858;48.716;9.648;2023-04-25T02:35:32;9.90;97.60
3684;DHT22;1858;48.716;9.648;2023-04-25T02:38:01;10.00;79.20
3684;DHT22;1858;48.716;9.648;2023-04-25T02:40:32;10.00;59.00
3684;DHT22;1858;48.716;9.648;2023-04-25T02:43:01;10.00;12.30
3684;DHT22;1858;48.716;9.648;2023-04-25T02:45:29;10.10;13.80
3684;DHT22;1858;48.716;9.648;2023-04-25T02:47:57;10.10;10.50
3684;DHT22;1858;48.716;9.648;2023-04-25T02:50:32;10.00;34.20
3684;DHT22;1858;48.716;9.648;2023-04-25T02:52:56;10.00;71.70
3684;DHT22;1858;48.716;9.648;2023-04-25T02:55:24;10.10;99.20
3684;DHT22;1858;48.716;9.648;2023-04-25T02:57:53;10.00;54.10
3684;DHT22;1858;48.716;9.648;2023-04-25T03:00:22;9.90;72.30
3684;DHT22;1858;48.716;9.648;2023-04-25T03:02:51;9.80;99.90
3684;DHT22;1858;48.716;9.648;2023-04-25T03:05:24;9.70;99.90
3684;DHT22;1858;48.716;9.648;2023-04-25T03:07:49;9.60;99.90
3684;DHT22;1858;48.716;9.648;2023-04-25T03:10:17;9.50;99.90
3684;DHT22;1858;48.716;9.648;2023-04-25T03:12:46;9.40;99.90
3684;DHT22;1858;48.716;9.648;2023-04-25T03:15:14;9.30;99.90
3684;DHT22;1858;48.716;9.648;2023-04-25T03:17:43;9.30;99.90
3684;DHT22;1858;48.716;9.648;2023-04-25T03:20:12;9.30;99.90
3684;DHT22;1858;48.716;9.648;2023-04-25T03:22:40;9.20;99.90
3684;DHT22;1858;48.716;9.648;2023-04-25T03:25:09;9.10;99.90
3684;DHT22;1858;48.716;9.648;2023-04-25T03:27:37;9.10;99.90
3684;DHT22;1858;48.716;9.648;2023-04-25T03:30:06;9.00;99.90
3684;DHT22;1858;48.716;9.648;2023-04-25T03:32:35;9.00;99.90
3684;DHT22;1858;48.716;9.648;2023-04-25T03:35:04;9.00;99.90
3684;DHT22;1858;48.716;9.648;2023-04-25T03:37:32;9.00;99.90
3684;DHT22;1858;48.716;9.648;2023-04-25T03:40:01;9.00;99.90
3684;DHT22;1858;48.716;9.648;2023-04-25T03:42:29;9.00;99.90
3684;DHT22;1858;48.716;9.648;2023-04-25T03:44:58;9.20;99.90
3684;DHT22;1858;48.716;9.648;2023-04-25T03:47:26;9.20;99.90
3684;DHT22;1858;48.716;9.648;2023-04-25T03:49:55;9.20;99.90
3684;DHT22;1858;48.716;9.648;2023-04-25T03:52:23;9.10;99.90
3684;DHT22;1858;48.716;9.648;2023-04-25T03:54:53;9.20;99.90
3684;DHT22;1858;48.716;9.648;2023-04-25T03:57:26;9.20;99.90
3684;DHT22;1858;48.716;9.648;2023-04-25T03:59:56;9.20;99.90
3684;DHT22;1858;48.716;9.648;2023-04-25T04:02:24;9.20;99.90
3684;DHT22;1858;48.716;9.648;2023-04-25T04:04:53;9.20;99.90
3684;DHT22;1858;48.716;9.648;2023-04-25T04:07:23;9.30;99.90
3684;DHT22;1858;48.716;9.648;2023-04-25T04:09:53;9.30;99.90
3684;DHT22;1858;48.716;9.648;2023-04-25T04:12:21;9.30;99.90
3684;DHT22;1858;48.716;9.648;2023-04-25T04:14:50;9.30;99.90
3684;DHT22;1858;48.716;9.648;2023-04-25T04:17:18;9.30;99.90
3684;DHT22;1858;48.716;9.648;2023-04-25T04:19:47;9.30;99.90
3684;DHT22;1858;48.716;9.648;2023-04-25T04:22:15;9.30;99.90
3684;DHT22;1858;48.716;9.648;2023-04-25T04:24:43;9.20;99.90
3684;DHT22;1858;48.716;9.648;2023-04-25T04:27:13;9.20;99.90
3684;DHT22;1858;48.716;9.648;2023-04-25T04:29:42;9.10;99.90
3684;DHT22;1858;48.716;9.648;2023-04-25T04:32:10;9.20;99.90
3684;DHT22;1858;48.716;9.648;2023-04-25T04:34:40;9.20;99.90
3684;DHT22;1858;48.716;9.648;2023-04-25T04:37:09;9.30;99.90
3684;DHT22;1858;48.716;9.648;2023-04-25T04:39:40;9.30;99.90
3684;DHT22;1858;48.716;9.648;2023-04-25T04:42:08;9.40;99.90
3684;DHT22;1858;48.716;9.648;2023-04-25T04:44:38;9.40;99.90
3684;DHT22;1858;48.716;9.648;2023-04-25T04:47:07;9.40;99.90
3684;DHT22;1858;48.716;9.648;2023-04-25T04:49:37;9.50;99.90
3684;DHT22;1858;48.716;9.648;2023-04-25T04:52:05;9.60;99.90
3684;DHT22;1858;48.716;9.648;2023-04-25T04:54:48;9.60;99.90
3684;DHT22;1858;48.716;9.648;2023-04-25T04:57:09;9.60;99.90
3684;DHT22;1858;48.716;9.648;2023-04-25T04:59:37;9.60;80.90
3684;DHT22;1858;48.716;9.648;2023-04-25T05:02:06;9.60;78.40
3684;DHT22;1858;48.716;9.648;2023-04-25T05:04:34;9.70;75.70
3684;DHT22;1858;48.716;9.648;2023-04-25T05:07:02;9.80;85.60
3684;DHT22;1858;48.716;9.648;2023-04-25T05:09:31;9.90;62.90
3684;DHT22;1858;48.716;9.648;2023-04-25T05:11:59;9.90;36.60
3684;DHT22;1858;48.716;9.648;2023-04-25T05:14:33;9.90;34.30
3684;DHT22;1858;48.716;9.648;2023-04-25T05:16:58;9.90;34.40
3684;DHT22;1858;48.716;9.648;2023-04-25T05:19:28;10.00;29.40
3684;DHT22;1858;48.716;9.648;2023-04-25T05:21:56;10.10;1.00
3684;DHT22;1858;48.716;9.648;2023-04-25T05:24:25;10.10;1.00
3684;DHT22;1858;48.716;9.648;2023-04-25T05:26:53;10.10;1.00
3684;DHT22;1858;48.716;9.648;2023-04-25T05:29:22;10.20;1.00
3684;DHT22;1858;48.716;9.648;2023-04-25T05:31:50;10.30;1.00
3684;DHT22;1858;48.716;9.648;2023-04-25T05:34:20;10.50;1.00
3684;DHT22;1858;48.716;9.648;2023-04-25T05:36:50;10.50;1.00
3684;DHT22;1858;48.716;9.648;2023-04-25T05:39:18;10.50;1.00
3684;DHT22;1858;48.716;9.648;2023-04-25T05:41:47;10.40;1.00
3684;DHT22;1858;48.716;9.648;2023-04-25T05:44:15;10.40;1.00
3684;DHT22;1858;48.716;9.648;2023-04-25T05:46:44;10.40;1.00
3684;DHT22;1858;48.716;9.648;2023-04-25T05:49:12;10.40;1.00
3684;DHT22;1858;48.716;9.648;2023-04-25T05:51:40;10.30;1.00
3684;DHT22;1858;48.716;9.648;2023-04-25T05:54:09;10.30;1.00
3684;DHT22;1858;48.716;9.648;2023-04-25T05:56:38;10.30;1.00
3684;DHT22;1858;48.716;9.648;2023-04-25T05:59:06;10.30;1.00
3684;DHT22;1858;48.716;9.648;2023-04-25T06:01:34;10.30;1.00
3684;DHT22;1858;48.716;9.648;2023-04-25T06:04:08;10.30;1.00
3684;DHT22;1858;48.716;9.648;2023-04-25T06:06:34;10.30;1.00
3684;DHT22;1858;48.716;9.648;2023-04-25T06:09:03;10.40;1.00
3684;DHT22;1858;48.716;9.648;2023-04-25T06:11:31;10.50;1.00
3684;DHT22;1858;48.716;9.648;2023-04-25T06:14:00;10.60;1.00
3684;DHT22;1858;48.716;9.648;2023-04-25T06:16:28;10.60;1.00
3684;DHT22;1858;48.716;9.648;2023-04-25T06:18:56;10.70;1.00
3684;DHT22;1858;48.716;9.648;2023-04-25T06:21:25;10.70;1.00
3684;DHT22;1858;48.716;9.648;2023-04-25T06:23:54;10.70;1.00
3684;DHT22;1858;48.716;9.648;2023-04-25T06:26:23;10.80;1.00
3684;DHT22;1858;48.716;9.648;2023-04-25T06:28:51;10.80;1.00
3684;DHT22;1858;48.716;9.648;2023-04-25T06:31:19;10.80;1.00
3684;DHT22;1858;48.716;9.648;2023-04-25T06:33:49;10.90;1.00
3684;DHT22;1858;48.716;9.648;2023-04-25T06:36:18;11.10;1.00
3684;DHT22;1858;48.716;9.648;2023-04-25T06:38:49;11.20;1.00
3684;DHT22;1858;48.716;9.648;2023-04-25T06:41:17;11.40;1.00
3684;DHT22;1858;48.716;9.648;2023-04-25T06:43:48;11.70;1.00
3684;DHT22;1858;48.716;9.648;2023-04-25T06:46:17;11.90;1.00
3684;DHT22;1858;48.716;9.648;2023-04-25T06:48:50;12.10;1.00
3684;DHT22;1858;48.716;9.648;2023-04-25T06:51:15;12.30;1.00
3684;DHT22;1858;48.716;9.648;2023-04-25T06:53:43;12.50;1.00
3684;DHT22;1858;48.716;9.648;2023-04-25T06:56:13;12.50;1.00
3684;DHT22;1858;48.716;9.648;2023-04-25T07:02:03;12.90;1.00
3684;DHT22;1858;48.716;9.648;2023-04-25T07:04:34;13.20;1.00
3684;DHT22;1858;48.716;9.648;2023-04-25T07:07:03;13.40;1.00
3684;DHT22;1858;48.716;9.648;2023-04-25T07:09:31;13.80;1.00
3684;DHT22;1858;48.716;9.648;2023-04-25T07:12:01;14.10;1.00
3684;DHT22;1858;48.716;9.648;2023-04-25T07:14:30;14.60;99.90
3684;DHT22;1858;48.716;9.648;2023-04-25T07:16:58;14.90;99.90
3684;DHT22;1858;48.716;9.648;2023-04-25T07:19:33;15.10;99.90
3684;DHT22;1858;48.716;9.648;2023-04-25T07:21:59;15.10;99.90
3684;DHT22;1858;48.716;9.648;2023-04-25T07:24:28;15.00;99.90
3684;DHT22;1858;48.716;9.648;2023-04-25T07:26:58;14.80;99.90
3684;DHT22;1858;48.716;9.648;2023-04-25T07:29:28;14.60;99.90
3684;DHT22;1858;48.716;9.648;2023-04-25T07:31:57;14.40;99.90
3684;DHT22;1858;48.716;9.648;2023-04-25T07:34:25;14.30;99.90
3684;DHT22;1858;48.716;9.648;2023-04-25T07:36:54;14.20;99.90
3684;DHT22;1858;48.716;9.648;2023-04-25T07:39:22;14.10;99.90
3684;DHT22;1858;48.716;9.648;2023-04-25T07:41:53;14.10;99.90
3684;DHT22;1858;48.716;9.648;2023-04-25T07:44:22;14.10;99.90
3684;DHT22;1858;48.716;9.648;2023-04-25T07:46:50;14.00;99.90
3684;DHT22;1858;48.716;9.648;2023-04-25T07:49:18;13.90;99.90
3684;DHT22;1858;48.716;9.648;2023-04-25T07:51:47;13.90;99.90
3684;DHT22;1858;48.716;9.648;2023-04-25T07:54:16;14.00;99.90
3684;DHT22;1858;48.716;9.648;2023-04-25T07:56:45;13.90;99.90
3684;DHT22;1858;48.716;9.648;2023-04-25T07:59:13;13.80;99.90
3684;DHT22;1858;48.716;9.648;2023-04-25T08:01:41;13.80;99.90
3684;DHT22;1858;48.716;9.648;2023-04-25T08:04:10;13.70;99.90
3684;DHT22;1858;48.716;9.648;2023-04-25T08:06:38;13.40;99.90
3684;DHT22;1858;48.716;9.648;2023-04-25T08:09:07;13.30;99.90
3684;DHT22;1858;48.716;9.648;2023-04-25T08:11:36;13.10;99.90
3684;DHT22;1858;48.716;9.648;2023-04-25T08:14:05;12.90;99.90
3684;DHT22;1858;48.716;9.648;2023-04-25T08:16:34;12.70;99.90
3684;DHT22;1858;48.716;9.648;2023-04-25T08:19:02;12.50;99.90
3684;DHT22;1858;48.716;9.648;2023-04-25T08:21:31;12.50;99.90
3684;DHT22;1858;48.716;9.648;2023-04-25T08:23:59;12.50;1.00
3684;DHT22;1858;48.716;9.648;2023-04-25T08:26:29;12.40;1.00
3684;DHT22;1858;48.716;9.648;2023-04-25T08:28:57;12.30;1.00
3684;DHT22;1858;48.716;9.648;2023-04-25T08:31:26;12.30;1.00
3684;DHT22;1858;48.716;9.648;2023-04-25T08:33:55;12.20;1.00
3684;DHT22;1858;48.716;9.648;2023-04-25T08:36:23;12.20;1.00
3684;DHT22;1858;48.716;9.648;2023-04-25T08:38:56;12.20;1.00
3684;DHT22;1858;48.716;9.648;2023-04-25T08:41:25;12.20;1.00
3684;DHT22;1858;48.716;9.648;2023-04-25T08:43:56;12.20;1.00
3684;DHT22;1858;48.716;9.648;2023-04-25T08:46:27;12.10;1.00
3684;DHT22;1858;48.716;9.648;2023-04-25T08:48:58;12.20;1.00
3684;DHT22;1858;48.716;9.648;2023-04-25T08:51:32;12.10;1.00
3684;DHT22;1858;48.716;9.648;2023-04-25T08:54:11;12.10;1.00
3684;DHT22;1858;48.716;9.648;2023-04-25T08:56:45;12.10;1.00
3684;DHT22;1858;48.716;9.648;2023-04-25T08:59:17;12.10;1.00
3684;DHT22;1858;48.716;9.648;2023-04-25T09:01:46;12.00;1.00
3684;DHT22;1858;48.716;9.648;2023-04-25T09:04:16;12.00;1.00
3684;DHT22;1858;48.716;9.648;2023-04-25T09:06:48;11.70;1.00
3684;DHT22;1858;48.716;9.648;2023-04-25T09:09:16;11.50;1.00
3684;DHT22;1858;48.716;9.648;2023-04-25T09:11:45;11.50;1.00
3684;DHT22;1858;48.716;9.648;2023-04-25T09:14:22;11.50;1.00
3684;DHT22;1858;48.716;9.648;2023-04-25T09:16:59;11.50;1.00
3684;DHT22;1858;48.716;9.648;2023-04-25T09:19:32;11.50;1.00
3684;DHT22;1858;48.716;9.648;2023-04-25T09:22:08;11.50;1.00
3684;DHT22;1858;48.716;9.648;2023-04-25T09:24:48;11.70;1.00
3684;DHT22;1858;48.716;9.648;2023-04-25T09:27:17;11.60;1.00
3684;DHT22;1858;48.716;9.648;2023-04-25T09:29:41;11.50;1.00
3684;DHT22;1858;48.716;9.648;2023-04-25T09:32:19;11.50;1.00
3684;DHT22;1858;48.716;9.648;2023-04-25T09:34:50;11.40;1.00
3684;DHT22;1858;48.716;9.648;2023-04-25T09:37:21;11.40;1.00
3684;DHT22;1858;48.716;9.648;2023-04-25T09:39:56;11.40;1.00
3684;DHT22;1858;48.716;9.648;2023-04-25T09:42:25;11.30;1.00
3684;DHT22;1858;48.716;9.648;2023-04-25T09:44:56;11.40;1.00
3684;DHT22;1858;48.716;9.648;2023-04-25T09:47:25;11.40;14.60
3684;DHT22;1858;48.716;9.648;2023-04-25T09:49:55;11.50;35.40
3684;DHT22;1858;48.716;9.648;2023-04-25T09:52:25;11.30;21.80
3684;DHT22;1858;48.716;9.648;2023-04-25T09:54:53;11.30;46.20
3684;DHT22;1858;48.716;9.648;2023-04-25T09:57:23;11.20;1.00
3684;DHT22;1858;48.716;9.648;2023-04-25T09:59:55;11.20;18.00
3684;DHT22;1858;48.716;9.648;2023-04-25T10:02:25;11.10;54.00
3684;DHT22;1858;48.716;9.648;2023-04-25T10:04:55;11.00;99.90
3684;DHT22;1858;48.716;9.648;2023-04-25T10:07:26;10.90;99.90
3684;DHT22;1858;48.716;9.648;2023-04-25T10:10:01;10.90;99.90
3684;DHT22;1858;48.716;9.648;2023-04-25T10:12:30;10.90;99.90
3684;DHT22;1858;48.716;9.648;2023-04-25T10:15:00;11.10;99.90
3684;DHT22;1858;48.716;9.648;2023-04-25T10:17:31;11.20;99.90
3684;DHT22;1858;48.716;9.648;2023-04-25T10:20:02;11.30;99.90
3684;DHT22;1858;48.716;9.648;2023-04-25T10:22:44;11.40;99.90
3684;DHT22;1858;48.716;9.648;2023-04-25T10:25:13;11.40;99.90
3684;DHT22;1858;48.716;9.648;2023-04-25T10:27:42;11.30;32.50
3684;DHT22;1858;48.716;9.648;2023-04-25T10:30:13;11.20;52.50
3684;DHT22;1858;48.716;9.648;2023-04-25T10:32:43;11.30;98.30
3684;DHT22;1858;48.716;9.648;2023-04-25T10:35:17;11.20;99.90
3684;DHT22;1858;48.716;9.648;2023-04-25T10:38:05;11.30;99.90
3684;DHT22;1858;48.716;9.648;2023-04-25T10:40:33;11.30;71.90
3684;DHT22;1858;48.716;9.648;2023-04-25T10:43:36;11.30;26.20
3684;DHT22;1858;48.716;9.648;2023-04-25T10:46:27;11.30;28.70
3684;DHT22;1858;48.716;9.648;2023-04-25T10:48:59;11.40;19.00
3684;DHT22;1858;48.716;9.648;2023-04-25T10:56:31;11.10;25.60
3684;DHT22;1858;48.716;9.648;2023-04-25T10:59:20;11.00;47.00
3684;DHT22;1858;48.716;9.648;2023-04-25T11:01:47;10.90;99.90
3684;DHT22;1858;48.716;9.648;2023-04-25T11:04:33;10.90;57.30
3684;DHT22;1858;48.716;9.648;2023-04-25T11:07:23;10.80;16.20
3684;DHT22;1858;48.716;9.648;2023-04-25T11:09:53;10.80;13.20
3684;DHT22;1858;48.716;9.648;2023-04-25T11:12:21;10.90;7.00
3684;DHT22;1858;48.716;9.648;2023-04-25T11:14:58;11.10;8.00
3684;DHT22;1858;48.716;9.648;2023-04-25T11:17:24;11.10;1.00
3684;DHT22;1858;48.716;9.648;2023-04-25T11:19:55;11.10;1.00
3684;DHT22;1858;48.716;9.648;2023-04-25T11:22:23;11.10;1.00
3684;DHT22;1858;48.716;9.648;2023-04-25T11:24:55;11.00;20.70
3684;DHT22;1858;48.716;9.648;2023-04-25T11:27:23;11.00;55.20
3684;DHT22;1858;48.716;9.648;2023-04-25T11:29:54;11.00;54.10
3684;DHT22;1858;48.716;9.648;2023-04-25T11:32:23;10.80;1.00
3684;DHT22;1858;48.716;9.648;2023-04-25T11:34:52;10.70;1.00
3684;DHT22;1858;48.716;9.648;2023-04-25T11:37:21;10.50;1.00
3684;DHT22;1858;48.716;9.648;2023-04-25T11:39:50;10.20;1.00
3684;DHT22;1858;48.716;9.648;2023-04-25T11:42:19;9.90;1.00
3684;DHT22;1858;48.716;9.648;2023-04-25T11:44:48;9.90;8.30
3684;DHT22;1858;48.716;9.648;2023-04-25T11:47:18;9.80;1.00
3684;DHT22;1858;48.716;9.648;2023-04-25T11:49:46;9.80;1.00
3684;DHT22;1858;48.716;9.648;2023-04-25T11:52:14;9.90;3.00
3684;DHT22;1858;48.716;9.648;2023-04-25T11:54:44;9.90;1.00
3684;DHT22;1858;48.716;9.648;2023-04-25T11:57:13;10.00;1.00
3684;DHT22;1858;48.716;9.648;2023-04-25T11:59:42;10.00;1.00
3684;DHT22;1858;48.716;9.648;2023-04-25T12:02:24;10.10;1.00
3684;DHT22;1858;48.716;9.648;2023-04-25T12:04:43;10.30;1.00
3684;DHT22;1858;48.716;9.648;2023-04-25T12:07:15;10.40;1.00
3684;DHT22;1858;48.716;9.648;2023-04-25T12:09:51;10.50;1.00
3684;DHT22;1858;48.716;9.648;2023-04-25T12:12:19;10.60;1.00
3684;DHT22;1858;48.716;9.648;2023-04-25T12:14:48;10.50;1.00
3684;DHT22;1858;48.716;9.648;2023-04-25T12:17:17;10.60;1.00
3684;DHT22;1858;48.716;9.648;2023-04-25T12:19:47;10.60;1.00
3684;DHT22;1858;48.716;9.648;2023-04-25T12:22:23;10.80;1.00
3684;DHT22;1858;48.716;9.648;2023-04-25T12:24:52;10.90;1.00
3684;DHT22;1858;48.716;9.648;2023-04-25T12:27:21;11.00;1.00
3684;DHT22;1858;48.716;9.648;2023-04-25T12:29:54;11.10;1.00
3684;DHT22;1858;48.716;9.648;2023-04-25T12:32:23;11.30;1.00
3684;DHT22;1858;48.716;9.648;2023-04-25T12:34:52;11.40;1.00
3684;DHT22;1858;48.716;9.648;2023-04-25T12:37:24;11.70;1.00
3684;DHT22;1858;48.716;9.648;2023-04-25T12:39:53;11.70;1.00
3684;DHT22;1858;48.716;9.648;2023-04-25T12:42:22;11.80;1.00
3684;DHT22;1858;48.716;9.648;2023-04-25T12:44:50;11.90;1.00
3684;DHT22;1858;48.716;9.648;2023-04-25T12:50:41;12.10;1.00
3684;DHT22;1858;48.716;9.648;2023-04-25T12:53:12;12.20;1.00
3684;DHT22;1858;48.716;9.648;2023-04-25T12:55:40;12.30;1.00
3684;DHT22;1858;48.716;9.648;2023-04-25T12:58:09;12.30;1.00
3684;DHT22;1858;48.716;9.648;2023-04-25T13:00:37;12.40;1.00
3684;DHT22;1858;48.716;9.648;2023-04-25T13:03:06;12.50;1.00
3684;DHT22;1858;48.716;9.648;2023-04-25T13:05:34;12.80;1.00
3684;DHT22;1858;48.716;9.648;2023-04-25T13:08:03;13.00;1.00
3684;DHT22;1858;48.716;9.648;2023-04-25T13:10:31;13.00;1.00
3684;DHT22;1858;48.716;9.648;2023-04-25T13:13:01;13.10;1.00
3684;DHT22;1858;48.716;9.648;2023-04-25T13:15:29;13.10;1.00
3684;DHT22;1858;48.716;9.648;2023-04-25T13:17:58;13.20;1.00
3684;DHT22;1858;48.716;9.648;2023-04-25T13:20:26;13.10;1.00
3684;DHT22;1858;48.716;9.648;2023-04-25T13:22:55;12.90;1.00
3684;DHT22;1858;48.716;9.648;2023-04-25T13:25:23;12.50;1.00
3684;DHT22;1858;48.716;9.648;2023-04-25T13:27:52;12.40;1.00
3684;DHT22;1858;48.716;9.648;2023-04-25T13:30:22;12.40;1.00
3684;DHT22;1858;48.716;9.648;2023-04-25T13:32:50;12.40;1.00
3684;DHT22;1858;48.716;9.648;2023-04-25T13:35:26;12.60;1.00
3684;DHT22;1858;48.716;9.648;2023-04-25T13:37:54;12.60;1.00
3684;DHT22;1858;48.716;9.648;2023-04-25T13:40:23;12.70;1.00
3684;DHT22;1858;48.716;9.648;2023-04-25T13:42:51;12.90;1.00
3684;DHT22;1858;48.716;9.648;2023-04-25T13:45:22;13.00;1.00
3684;DHT22;1858;48.716;9.648;2023-04-25T13:47:51;13.00;1.00
3684;DHT22;1858;48.716;9.648;2023-04-25T13:50:21;13.00;1.00
3684;DHT22;1858;48.716;9.648;2023-04-25T13:52:51;13.10;1.00
3684;DHT22;1858;48.716;9.648;2023-04-25T13:55:19;13.10;1.00
3684;DHT22;1858;48.716;9.648;2023-04-25T13:57:47;13.20;1.00
3684;DHT22;1858;48.716;9.648;2023-04-25T14:00:16;13.50;1.00
3684;DHT22;1858;48.716;9.648;2023-04-25T14:02:44;13.70;1.00
3684;DHT22;1858;48.716;9.648;2023-04-25T14:05:13;14.00;1.00
3684;DHT22;1858;48.716;9.648;2023-04-25T14:07:41;14.20;1.00
3684;DHT22;1858;48.716;9.648;2023-04-25T14:10:17;14.40;1.00
3684;DHT22;1858;48.716;9.648;2023-04-25T14:12:41;14.20;1.00
3684;DHT22;1858;48.716;9.648;2023-04-25T14:15:10;14.00;1.00
3684;DHT22;1858;48.716;9.648;2023-04-25T14:17:38;14.00;1.00
3684;DHT22;1858;48.716;9.648;2023-04-25T14:20:08;13.70;1.00
3684;DHT22;1858;48.716;9.648;2023-04-25T14:22:38;13.30;99.90
3684;DHT22;1858;48.716;9.648;2023-04-25T14:25:08;13.20;1.00
3684;DHT22;1858;48.716;9.648;2023-04-25T14:27:37;13.00;1.00
3684;DHT22;1858;48.716;9.648;2023-04-25T14:30:06;12.90;1.00
3684;DHT22;1858;48.716;9.648;2023-04-25T14:32:37;12.80;1.00
3684;DHT22;1858;48.716;9.648;2023-04-25T14:35:06;12.80;1.00
3684;DHT22;1858;48.716;9.648;2023-04-25T14:37:34;12.90;1.00
3684;DHT22;1858;48.716;9.648;2023-04-25T14:40:03;13.00;1.00
3684;DHT22;1858;48.716;9.648;2023-04-25T14:42:32;13.10;1.00
3684;DHT22;1858;48.716;9.648;2023-04-25T14:45:02;13.30;1.00
3684;DHT22;1858;48.716;9.648;2023-04-25T14:47:30;13.40;1.00
3684;DHT22;1858;48.716;9.648;2023-04-25T14:49:59;13.50;1.00
3684;DHT22;1858;48.716;9.648;2023-04-25T14:52:28;13.60;1.00
3684;DHT22;1858;48.716;9.648;2023-04-25T14:55:01;13.40;1.00
3684;DHT22;1858;48.716;9.648;2023-04-25T14:57:32;13.40;1.00
3684;DHT22;1858;48.716;9.648;2023-04-25T15:00:01;13.40;1.00
3684;DHT22;1858;48.716;9.648;2023-04-25T15:02:29;13.40;1.00
3684;DHT22;1858;48.716;9.648;2023-04-25T15:05:05;13.50;1.00
3684;DHT22;1858;48.716;9.648;2023-04-25T15:07:30;13.50;1.00
3684;DHT22;1858;48.716;9.648;2023-04-25T15:09:59;13.50;1.00
3684;DHT22;1858;48.716;9.648;2023-04-25T15:12:27;13.40;1.40
3684;DHT22;1858;48.716;9.648;2023-04-25T15:14:56;13.40;1.00
3684;DHT22;1858;48.716;9.648;2023-04-25T15:17:28;13.50;1.00
3684;DHT22;1858;48.716;9.648;2023-04-25T15:19:58;13.60;1.00
3684;DHT22;1858;48.716;9.648;2023-04-25T15:22:27;13.80;1.00
3684;DHT22;1858;48.716;9.648;2023-04-25T15:24:55;13.80;1.00
3684;DHT22;1858;48.716;9.648;2023-04-25T15:27:24;13.80;99.90
3684;DHT22;1858;48.716;9.648;2023-04-25T15:29:54;13.60;99.90
3684;DHT22;1858;48.716;9.648;2023-04-25T15:32:22;13.50;99.90
3684;DHT22;1858;48.716;9.648;2023-04-25T15:34:51;13.50;99.90
3684;DHT22;1858;48.716;9.648;2023-04-25T15:37:19;13.60;1.00
3684;DHT22;1858;48.716;9.648;2023-04-25T15:39:48;13.60;99.90
3684;DHT22;1858;48.716;9.648;2023-04-25T15:42:17;13.60;99.90
3684;DHT22;1858;48.716;9.648;2023-04-25T15:44:45;13.60;99.90
3684;DHT22;1858;48.716;9.648;2023-04-25T15:47:14;13.40;99.90
3684;DHT22;1858;48.716;9.648;2023-04-25T15:49:42;13.30;99.90
3684;DHT22;1858;48.716;9.648;2023-04-25T15:52:11;13.20;99.90
3684;DHT22;1858;48.716;9.648;2023-04-25T15:54:39;13.20;99.90
3684;DHT22;1858;48.716;9.648;2023-04-25T15:57:10;13.00;99.90
3684;DHT22;1858;48.716;9.648;2023-04-25T15:59:40;12.90;99.90
3684;DHT22;1858;48.716;9.648;2023-04-25T16:02:09;12.80;99.90
3684;DHT22;1858;48.716;9.648;2023-04-25T16:04:37;12.80;1.00
3684;DHT22;1858;48.716;9.648;2023-04-25T16:07:06;12.80;1.00
3684;DHT22;1858;48.716;9.648;2023-04-25T16:09:35;12.80;1.00
3684;DHT22;1858;48.716;9.648;2023-04-25T16:12:07;12.60;1.00
3684;DHT22;1858;48.716;9.648;2023-04-25T16:14:35;12.50;1.00
3684;DHT22;1858;48.716;9.648;2023-04-25T16:17:04;12.40;1.00
3684;DHT22;1858;48.716;9.648;2023-04-25T16:19:32;12.20;1.00
3684;DHT22;1858;48.716;9.648;2023-04-25T16:22:00;12.20;1.00
3684;DHT22;1858;48.716;9.648;2023-04-25T16:24:34;12.20;1.00
3684;DHT22;1858;48.716;9.648;2023-04-25T16:26:59;12.30;1.00
3684;DHT22;1858;48.716;9.648;2023-04-25T16:29:27;12.30;1.00
3684;DHT22;1858;48.716;9.648;2023-04-25T16:31:57;12.30;1.00
3684;DHT22;1858;48.716;9.648;2023-04-25T16:34:27;12.50;1.00
3684;DHT22;1858;48.716;9.648;2023-04-25T16:36:56;12.50;1.00
3684;DHT22;1858;48.716;9.648;2023-04-25T16:39:24;12.40;1.00
3684;DHT22;1858;48.716;9.648;2023-04-25T16:41:53;12.40;1.00